sensor_id;sensor_type;location;lat;lon;timestamp;temperature;humidity
15152;DHT22;7676;50.900;6.234;2023-08-20T00:04:36;21.70;99.90
15152;DHT22;7676;50.900;6.234;2023-08-20T00:19:39;23.50;99.90
15152;DHT22;7676;50.900;6.234;2023-08-20T00:34:42;21.20;99.90
15152;DHT22;7676;50.900;6.234;2023-08-20T00:49:47;21.30;99.90
15152;DHT22;7676;50.900;6.234;2023-08-20T01:04:50;21.70;99.90
15152;DHT22;7676;50.900;6.234;2023-08-20T01:19:53;21.80;99.90
15152;DHT22;7676;50.900;6.234;2023-08-20T01:34:57;21.70;99.90
15152;DHT22;7676;50.900;6.234;2023-08-20T01:49:59;21.90;99.90
15152;DHT22;7676;50.900;6.234;2023-08-20T02:05:04;21.50;99.90
15152;DHT22;7676;50.900;6.234;2023-08-20T02:20:07;20.90;99.90
15152;DHT22;7676;50.900;6.234;2023-08-20T02:35:12;20.90;99.90
15152;DHT22;7676;50.900;6.234;2023-08-20T02:50:18;21.00;99.90
15152;DHT22;7676;50.900;6.234;2023-08-20T03:05:21;21.20;99.90
15152;DHT22;7676;50.900;6.234;2023-08-20T03:20:24;20.90;99.90
15152;DHT22;7676;50.900;6.234;2023-08-20T03:35:27;19.20;99.90
15152;DHT22;7676;50.900;6.234;2023-08-20T03:50:30;21.00;99.90
15152;DHT22;7676;50.900;6.234;2023-08-20T04:05:36;21.10;99.90
15152;DHT22;7676;50.900;6.234;2023-08-20T04:20:40;21.00;99.90
15152;DHT22;7676;50.900;6.234;2023-08-20T04:35:42;20.80;99.90
15152;DHT22;7676;50.900;6.234;2023-08-20T04:50:45;20.70;99.90
15152;DHT22;7676;50.900;6.234;2023-08-20T05:05:52;20.50;99.90
15152;DHT22;7676;50.900;6.234;2023-08-20T05:20:54;20.40;99.90
15152;DHT22;7676;50.900;6.234;2023-08-20T05:35:59;20.70;99.90
15152;DHT22;7676;50.900;6.234;2023-08-20T05:51:04;22.70;99.90
15152;DHT22;7676;50.900;6.234;2023-08-20T06:06:08;22.70;99.90
15152;DHT22;7676;50.900;6.234;2023-08-20T06:21:11;23.80;99.90
15152;DHT22;7676;50.900;6.234;2023-08-20T06:36:15;24.30;99.90
15152;DHT22;7676;50.900;6.234;2023-08-20T06:51:20;24.50;99.90
15152;DHT22;7676;50.900;6.234;2023-08-20T07:06:24;24.70;99.90
15152;DHT22;7676;50.900;6.234;2023-08-20T07:21:27;24.80;99.90
15152;DHT22;7676;50.900;6.234;2023-08-20T07:36:30;23.50;99.90
15152;DHT22;7676;50.900;6.234;2023-08-20T07:51:33;23.80;99.90
15152;DHT22;7676;50.900;6.234;2023-08-20T08:06:36;23.40;99.90
15152;DHT22;7676;50.900;6.234;2023-08-20T08:21:39;23.00;99.90
15152;DHT22;7676;50.900;6.234;2023-08-20T08:36:41;23.30;99.90
15152;DHT22;7676;50.900;6.234;2023-08-20T08:51:44;23.50;99.90
15152;DHT22;7676;50.900;6.234;2023-08-20T09:06:52;23.20;99.90
15152;DHT22;7676;50.900;6.234;2023-08-20T09:21:58;24.20;99.90
15152;DHT22;7676;50.900;6.234;2023-08-20T09:37:01;24.10;99.90
15152;DHT22;7676;50.900;6.234;2023-08-20T09:52:05;24.60;99.90
15152;DHT22;7676;50.900;6.234;2023-08-20T10:07:11;24.60;99.90
15152;DHT22;7676;50.900;6.234;2023-08-20T10:22:14;24.80;99.90
15152;DHT22;7676;50.900;6.234;2023-08-20T10:37:26;25.90;99.90
15152;DHT22;7676;50.900;6.234;2023-08-20T10:52:30;25.20;99.90
15152;DHT22;7676;50.900;6.234;2023-08-20T11:07:34;25.00;99.90
15152;DHT22;7676;50.900;6.234;2023-08-20T11:22:38;26.10;99.90
15152;DHT22;7676;50.900;6.234;2023-08-20T11:37:41;26.20;99.90
15152;DHT22;7676;50.900;6.234;2023-08-20T11:52:44;26.70;99.90
15152;DHT22;7676;50.900;6.234;2023-08-20T12:07:57;25.30;99.90
15152;DHT22;7676;50.900;6.234;2023-08-20T12:23:05;25.80;99.90
15152;DHT22;7676;50.900;6.234;2023-08-20T12:38:09;26.20;99.90
15152;DHT22;7676;50.900;6.234;2023-08-20T12:53:11;25.90;99.90
15152;DHT22;7676;50.900;6.234;2023-08-20T13:08:15;25.70;99.90
15152;DHT22;7676;50.900;6.234;2023-08-20T13:23:18;25.90;99.90
15152;DHT22;7676;50.900;6.234;2023-08-20T13:38:21;26.20;99.90
15152;DHT22;7676;50.900;6.234;2023-08-20T13:53:24;26.50;99.90
15152;DHT22;7676;50.900;6.234;2023-08-20T14:08:27;26.60;99.90
15152;DHT22;7676;50.900;6.234;2023-08-20T14:23:30;26.90;99.90
15152;DHT22;7676;50.900;6.234;2023-08-20T14:38:33;26.10;99.90
15152;DHT22;7676;50.900;6.234;2023-08-20T14:53:37;26.30;99.90
15152;DHT22;7676;50.900;6.234;2023-08-20T15:08:39;26.20;99.90
15152;DHT22;7676;50.900;6.234;2023-08-20T15:23:42;27.40;99.90
15152;DHT22;7676;50.900;6.234;2023-08-20T15:40:11;27.40;99.90
15152;DHT22;7676;50.900;6.234;2023-08-20T15:55:14;27.40;99.90
15152;DHT22;7676;50.900;6.234;2023-08-20T16:10:17;27.00;99.90
15152;DHT22;7676;50.900;6.234;2023-08-20T16:25:21;26.70;99.90
15152;DHT22;7676;50.900;6.234;2023-08-20T16:40:24;26.00;99.90
15152;DHT22;7676;50.900;6.234;2023-08-20T16:55:27;25.70;99.90
15152;DHT22;7676;50.900;6.234;2023-08-20T17:10:30;25.40;99.90
15152;DHT22;7676;50.900;6.234;2023-08-20T17:25:33;25.60;99.90
15152;DHT22;7676;50.900;6.234;2023-08-20T17:40:37;25.50;99.90
15152;DHT22;7676;50.900;6.234;2023-08-20T17:55:39;25.40;99.90
15152;DHT22;7676;50.900;6.234;2023-08-20T18:10:42;25.20;99.90
15152;DHT22;7676;50.900;6.234;2023-08-20T18:25:45;25.10;99.90
15152;DHT22;7676;50.900;6.234;2023-08-20T18:40:48;25.10;99.90
15152;DHT22;7676;50.900;6.234;2023-08-20T18:55:50;25.10;99.90
15152;DHT22;7676;50.900;6.234;2023-08-20T19:10:53;24.00;99.90
15152;DHT22;7676;50.900;6.234;2023-08-20T19:25:56;24.70;99.90
15152;DHT22;7676;50.900;6.234;2023-08-20T19:40:59;24.60;99.90
15152;DHT22;7676;50.900;6.234;2023-08-20T19:56:01;24.40;99.90
15152;DHT22;7676;50.900;6.234;2023-08-20T20:11:04;24.60;99.90
15152;DHT22;7676;50.900;6.234;2023-08-20T20:26:07;24.50;99.90
15152;DHT22;7676;50.900;6.234;2023-08-20T20:41:09;24.60;99.90
15152;DHT22;7676;50.900;6.234;2023-08-20T21:11:15;23.50;99.90
15152;DHT22;7676;50.900;6.234;2023-08-20T21:26:18;23.30;99.90
15152;DHT22;7676;50.900;6.234;2023-08-20T21:41:20;23.70;99.90
15152;DHT22;7676;50.900;6.234;2023-08-20T21:56:23;23.80;99.90
15152;DHT22;7676;50.900;6.234;2023-08-20T22:11:27;23.50;99.90
15152;DHT22;7676;50.900;6.234;2023-08-20T22:26:30;23.50;99.90
15152;DHT22;7676;50.900;6.234;2023-08-20T22:41:34;23.50;99.90
15152;DHT22;7676;50.900;6.234;2023-08-20T22:56:36;23.30;99.90
15152;DHT22;7676;50.900;6.234;2023-08-20T23:11:40;22.80;99.90
15152;DHT22;7676;50.900;6.234;2023-08-20T23:26:43;22.80;99.90
15152;DHT22;7676;50.900;6.234;2023-08-20T23:41:47;21.90;99.90
15152;DHT22;7676;50.900;6.234;2023-08-20T23:56:50;22.00;99.90
